Time;durP1;ratioP1;P1;durP2;ratioP2;P2;SDS_P1;SDS_P2;PMS_P1;PMS_P2;Temp;Humidity;BMP_temperature;BMP_pressure;BME280_temperature;BME280_humidity;BME280_pressure;Samples;Min_cycle;Max_cycle;Signal;HPM_P1;HPM_P2
2023/09/06 00:01:56;;;;;;;6.55;2.78;;;;;;;17.23;100.00;101661.28;5069057;28;20519;-68
2023/09/06 00:04:25;;;;;;;9.60;3.40;;;;;;;17.12;100.00;101659.16;5069219;28;20454;-67
2023/09/06 00:06:52;;;;;;;9.98;3.50;;;;;;;17.07;100.00;101656.75;5071221;28;20398;-67
2023/09/06 00:09:19;;;;;;;11.50;3.53;;;;;;;17.00;100.00;101665.09;5069658;28;20072;-68
2023/09/06 00:11:46;;;;;;;11.15;3.05;;;;;;;17.01;100.00;101672.06;5060773;28;20098;-67
2023/09/06 00:14:13;;;;;;;7.68;2.83;;;;;;;17.19;100.00;101668.53;5069487;28;20055;-67
2023/09/06 00:16:40;;;;;;;7.57;2.40;;;;;;;17.46;100.00;101681.28;5070218;28;20056;-68
2023/09/06 00:19:06;;;;;;;8.73;2.33;;;;;;;17.23;100.00;101666.56;5065192;28;20052;-68
2023/09/06 00:21:40;;;;;;;7.32;2.53;;;;;;;17.27;100.00;101673.41;5070613;28;20045;-67
2023/09/06 00:24:10;;;;;;;9.50;2.45;;;;;;;17.27;100.00;101668.13;5070923;28;20383;-67
2023/09/06 00:26:37;;;;;;;12.88;4.07;;;;;;;17.26;100.00;101669.91;5070791;28;20052;-67
2023/09/06 00:29:04;;;;;;;8.93;2.97;;;;;;;17.34;100.00;101682.75;5070866;28;20462;-68
2023/09/06 00:31:31;;;;;;;8.45;2.45;;;;;;;17.34;100.00;101658.09;5069981;28;20567;-68
2023/09/06 00:33:58;;;;;;;6.35;2.17;;;;;;;17.45;100.00;101656.56;5070425;28;20517;-68
2023/09/06 00:36:28;;;;;;;6.53;2.03;;;;;;;17.39;100.00;101640.16;5068657;28;20059;-68
2023/09/06 00:38:58;;;;;;;7.32;2.70;;;;;;;17.44;100.00;101660.16;5070208;28;20060;-68
2023/09/06 00:41:26;;;;;;;11.00;3.50;;;;;;;17.30;100.00;101653.84;5069828;28;20048;-68
2023/09/06 00:43:53;;;;;;;8.73;2.60;;;;;;;17.31;100.00;101645.00;5069442;28;20402;-68
2023/09/06 00:46:20;;;;;;;8.05;2.97;;;;;;;17.31;100.00;101642.34;5069905;28;20603;-68
2023/09/06 00:48:50;;;;;;;5.28;2.13;;;;;;;17.41;100.00;101633.00;5055268;28;20084;-68
2023/09/06 00:51:19;;;;;;;9.75;2.80;;;;;;;17.25;100.00;101638.22;5069163;28;20082;-68
2023/09/06 00:53:48;;;;;;;8.57;2.47;;;;;;;17.39;100.00;101635.72;5054917;28;20053;-68
2023/09/06 00:56:17;;;;;;;8.15;2.38;;;;;;;17.58;100.00;101637.41;5067092;28;20052;-68
2023/09/06 00:58:45;;;;;;;7.70;2.38;;;;;;;17.68;100.00;101633.34;5069913;28;20059;-68
2023/09/06 01:01:12;;;;;;;9.40;2.50;;;;;;;17.51;100.00;101622.78;5069355;28;20041;-67
2023/09/06 01:03:40;;;;;;;7.72;2.40;;;;;;;17.48;100.00;101623.81;5069552;28;20718;-68
2023/09/06 01:06:16;;;;;;;6.03;2.17;;;;;;;17.49;100.00;101622.00;5066794;28;20058;-68
2023/09/06 01:09:05;;;;;;;7.53;2.30;;;;;;;17.55;100.00;101609.31;5061826;28;20044;-67
2023/09/06 01:11:37;;;;;;;8.32;2.78;;;;;;;17.69;100.00;101610.34;5068764;28;20045;-68
2023/09/06 01:14:04;;;;;;;6.55;2.15;;;;;;;17.36;100.00;101600.63;5060456;28;20052;-68
2023/09/06 01:16:41;;;;;;;10.23;2.80;;;;;;;17.44;100.00;101609.00;5060809;28;20132;-68
2023/09/06 01:19:12;;;;;;;9.23;2.80;;;;;;;17.38;100.00;101610.19;5058227;28;20060;-68
2023/09/06 01:21:49;;;;;;;6.57;2.45;;;;;;;17.38;100.00;101604.03;5063800;28;20045;-68
2023/09/06 01:24:17;;;;;;;7.72;2.45;;;;;;;17.26;100.00;101609.03;5056521;28;20528;-68
2023/09/06 01:26:44;;;;;;;7.72;2.45;;;;;;;17.30;100.00;101596.50;5068096;28;20048;-68
2023/09/06 01:29:11;;;;;;;8.75;3.28;;;;;;;17.37;100.00;101616.44;5069678;28;20048;-68
2023/09/06 01:31:38;;;;;;;8.38;3.03;;;;;;;17.38;100.00;101617.28;5065531;28;20410;-67
2023/09/06 01:34:05;;;;;;;9.55;2.88;;;;;;;17.47;100.00;101608.84;5057324;28;20044;-68
2023/09/06 01:36:32;;;;;;;10.82;3.40;;;;;;;17.56;100.00;101605.69;5068807;28;20060;-67
2023/09/06 01:38:58;;;;;;;9.45;3.28;;;;;;;17.30;100.00;101595.63;5049546;28;20506;-68
2023/09/06 01:41:25;;;;;;;7.95;3.30;;;;;;;17.39;100.00;101592.53;5061697;28;20053;-67
2023/09/06 01:43:54;;;;;;;8.48;3.10;;;;;;;17.39;100.00;101589.88;5063294;28;20494;-68
2023/09/06 01:46:23;;;;;;;13.55;4.38;;;;;;;17.51;100.00;101601.59;5061084;28;20056;-68
2023/09/06 01:48:50;;;;;;;8.85;2.80;;;;;;;17.54;100.00;101596.13;5070321;28;20087;-68
2023/09/06 01:51:17;;;;;;;8.55;3.25;;;;;;;17.33;100.00;101587.53;5068383;28;20047;-68
2023/09/06 01:53:44;;;;;;;8.93;3.20;;;;;;;17.32;100.00;101589.34;5067822;28;20049;-68
2023/09/06 01:56:10;;;;;;;10.80;4.40;;;;;;;17.44;100.00;101595.75;5068389;28;20040;-68
2023/09/06 01:58:38;;;;;;;9.77;3.92;;;;;;;17.42;100.00;101579.97;5073035;28;20059;-68
2023/09/06 02:01:05;;;;;;;10.27;4.00;;;;;;;17.60;100.00;101591.38;5072214;28;20091;-68
2023/09/06 02:03:33;;;;;;;8.93;3.15;;;;;;;17.73;100.00;101570.38;5073148;28;20549;-68
2023/09/06 02:06:06;;;;;;;8.90;2.95;;;;;;;17.64;100.00;101595.56;5071756;28;20048;-68
2023/09/06 02:08:35;;;;;;;8.90;3.65;;;;;;;17.85;100.00;101584.75;5066074;28;20060;-67
2023/09/06 02:11:02;;;;;;;7.93;2.72;;;;;;;17.85;100.00;101584.75;5065822;28;20391;-67
2023/09/06 02:13:28;;;;;;;10.68;4.15;;;;;;;17.72;100.00;101592.50;5052950;28;20060;-68
2023/09/06 02:15:55;;;;;;;12.20;4.00;;;;;;;17.50;100.00;101592.81;5053428;28;20060;-68
2023/09/06 02:18:24;;;;;;;9.88;3.90;;;;;;;17.86;100.00;101583.84;5060797;28;20470;-68
2023/09/06 02:20:50;;;;;;;10.80;4.47;;;;;;;17.75;100.00;101580.91;5063670;28;20048;-68
2023/09/06 02:23:17;;;;;;;10.63;4.30;;;;;;;17.64;100.00;101568.22;5063274;28;20051;-68
2023/09/06 02:25:44;;;;;;;10.25;3.40;;;;;;;17.70;100.00;101567.88;5065728;28;20061;-68
2023/09/06 02:28:11;;;;;;;9.90;3.70;;;;;;;17.86;100.00;101570.59;5076758;28;20056;-68
2023/09/06 02:30:38;;;;;;;8.70;3.30;;;;;;;18.15;100.00;101571.63;5070342;28;20470;-68
2023/09/06 02:33:07;;;;;;;11.07;4.05;;;;;;;18.14;100.00;101567.25;5066037;28;20129;-68
2023/09/06 02:35:40;;;;;;;8.65;3.03;;;;;;;18.16;100.00;101562.72;5062478;28;20487;-67
2023/09/06 02:38:11;;;;;;;12.13;3.13;;;;;;;18.17;100.00;101569.75;5071418;28;20131;-68
2023/09/06 02:40:40;;;;;;;8.48;3.17;;;;;;;18.20;100.00;101563.41;5057296;28;20050;-68
2023/09/06 02:43:10;;;;;;;8.85;2.95;;;;;;;18.15;100.00;101552.19;5073050;28;20529;-68
2023/09/06 02:45:37;;;;;;;9.63;3.05;;;;;;;18.17;100.00;101550.34;5071916;28;20060;-68
2023/09/06 02:48:16;;;;;;;8.43;3.15;;;;;;;18.31;100.00;101562.78;5072482;28;20359;-68
2023/09/06 02:50:44;;;;;;;9.60;3.60;;;;;;;18.14;100.00;101545.22;5056060;28;20506;-68
2023/09/06 02:53:21;;;;;;;9.40;3.22;;;;;;;18.33;100.00;101564.44;5066171;28;20485;-68
2023/09/06 02:55:53;;;;;;;11.27;3.20;;;;;;;18.35;100.00;101564.34;5066285;28;20045;-68
2023/09/06 02:58:24;;;;;;;9.27;3.05;;;;;;;18.38;100.00;101554.41;5062566;28;20157;-68
2023/09/06 03:01:05;;;;;;;8.80;2.80;;;;;;;18.44;100.00;101558.50;5063907;28;20119;-68
2023/09/06 03:03:33;;;;;;;7.50;2.83;;;;;;;18.30;100.00;101545.19;5058768;28;20399;-68
2023/09/06 03:06:04;;;;;;;8.35;2.90;;;;;;;18.34;100.00;101546.72;5066828;28;20127;-68
2023/09/06 03:08:31;;;;;;;12.73;3.90;;;;;;;18.20;100.00;101550.16;5071833;28;20102;-68
2023/09/06 03:10:59;;;;;;;13.95;3.60;;;;;;;18.28;100.00;101547.09;5066636;28;20060;-68
2023/09/06 03:13:25;;;;;;;12.75;4.18;;;;;;;18.17;100.00;101540.59;5060071;28;20045;-68
2023/09/06 03:15:52;;;;;;;9.63;4.30;;;;;;;18.07;100.00;101552.66;5070189;28;20542;-68
2023/09/06 03:18:19;;;;;;;9.80;3.55;;;;;;;18.08;100.00;101550.84;5070162;28;20056;-68
2023/09/06 03:20:46;;;;;;;11.48;3.88;;;;;;;18.00;100.00;101541.53;5069428;28;20040;-68
2023/09/06 03:23:17;;;;;;;12.30;4.05;;;;;;;18.27;100.00;101551.50;5069977;28;20044;-67
2023/09/06 03:25:57;;;;;;;10.13;4.07;;;;;;;18.28;100.00;101555.88;5068863;28;20052;-68
2023/09/06 03:28:25;;;;;;;10.77;4.07;;;;;;;18.15;100.00;101546.91;5057916;28;20508;-68
2023/09/06 03:30:58;;;;;;;10.15;3.42;;;;;;;18.26;100.00;101549.81;5070747;28;20048;-68
2023/09/06 03:33:27;;;;;;;12.07;4.20;;;;;;;18.19;100.00;101549.31;5064651;28;20715;-68
2023/09/06 03:35:53;;;;;;;11.90;3.65;;;;;;;18.07;100.00;101551.81;5050875;28;20466;-68
2023/09/06 03:38:25;;;;;;;13.18;4.03;;;;;;;18.02;100.00;101544.09;5067652;28;20044;-68
2023/09/06 03:40:52;;;;;;;10.13;3.92;;;;;;;17.90;100.00;101548.31;5069079;28;20127;-68
2023/09/06 03:43:30;;;;;;;11.48;3.67;;;;;;;17.82;100.00;101542.53;5069249;28;20501;-68
2023/09/06 03:45:59;;;;;;;8.57;3.03;;;;;;;17.92;100.00;101538.47;5061877;28;20131;-68
2023/09/06 03:48:27;;;;;;;15.32;4.22;;;;;;;17.95;100.00;101535.63;5069533;28;20044;-68
2023/09/06 03:50:57;;;;;;;13.15;4.22;;;;;;;17.81;100.00;101538.16;5059972;28;20044;-67
2023/09/06 03:53:27;;;;;;;10.85;4.05;;;;;;;17.86;100.00;101541.44;5071002;28;20102;-68
2023/09/06 03:55:57;;;;;;;10.65;3.88;;;;;;;17.88;100.00;101541.38;5062917;28;20107;-68
2023/09/06 03:58:24;;;;;;;11.32;3.42;;;;;;;17.86;100.00;101543.25;5065363;28;20052;-68
2023/09/06 04:00:52;;;;;;;9.38;3.42;;;;;;;17.82;100.00;101531.94;5055355;28;20553;-68
2023/09/06 04:03:20;;;;;;;10.82;3.97;;;;;;;17.76;100.00;101533.13;5071010;28;20129;-68
2023/09/06 04:05:47;;;;;;;12.65;4.28;;;;;;;17.74;100.00;101540.31;5069986;28;20054;-67
2023/09/06 04:08:17;;;;;;;8.70;3.15;;;;;;;17.80;100.00;101524.06;5086821;28;20075;-68
2023/09/06 04:10:45;;;;;;;8.05;3.17;;;;;;;17.90;100.00;101531.53;5069701;28;20044;-67
2023/09/06 04:13:13;;;;;;;10.75;3.80;;;;;;;17.80;100.00;101532.03;5070383;28;20049;-68
2023/09/06 04:15:42;;;;;;;9.15;2.97;;;;;;;17.77;100.00;101528.69;5057032;28;20048;-68
2023/09/06 04:18:11;;;;;;;11.80;3.20;;;;;;;17.78;100.00;101519.81;5069079;28;20052;-67
2023/09/06 04:20:39;;;;;;;10.88;3.30;;;;;;;17.79;100.00;101517.06;5056730;28;20044;-68
2023/09/06 04:23:08;;;;;;;11.45;3.20;;;;;;;17.91;100.00;101527.97;5070312;28;20055;-68
2023/09/06 04:25:43;;;;;;;11.68;3.42;;;;;;;17.88;100.00;101526.31;5069691;28;20166;-68
2023/09/06 04:28:11;;;;;;;13.48;3.40;;;;;;;17.74;100.00;101520.91;5069788;28;20106;-68
2023/09/06 04:30:43;;;;;;;9.73;3.28;;;;;;;17.53;100.00;101507.03;5062069;28;20548;-68
2023/09/06 04:33:12;;;;;;;7.63;3.20;;;;;;;17.60;100.00;101506.66;5067556;28;20053;-68
2023/09/06 04:35:44;;;;;;;8.77;2.78;;;;;;;17.66;100.00;101502.81;5050156;28;20091;-68
2023/09/06 04:38:12;;;;;;;9.48;2.95;;;;;;;17.65;100.00;101499.31;5064301;28;20079;-68
2023/09/06 04:40:42;;;;;;;9.07;2.80;;;;;;;17.72;100.00;101510.38;5058354;28;20123;-67
2023/09/06 04:43:10;;;;;;;11.18;3.17;;;;;;;17.59;100.00;101501.44;5068790;28;20049;-67
2023/09/06 04:45:39;;;;;;;9.30;3.30;;;;;;;17.52;100.00;101498.25;5065273;28;20076;-68
2023/09/06 04:48:08;;;;;;;9.77;3.33;;;;;;;17.54;100.00;101496.38;5064389;28;20048;-68
2023/09/06 04:50:37;;;;;;;8.57;2.85;;;;;;;17.74;100.00;101505.00;5067622;28;20087;-68
2023/09/06 04:53:05;;;;;;;9.98;3.58;;;;;;;17.84;100.00;101506.22;5069500;28;20149;-67
2023/09/06 04:55:35;;;;;;;11.07;3.63;;;;;;;17.73;100.00;101493.56;5065238;28;20052;-68
2023/09/06 04:58:03;;;;;;;9.65;2.90;;;;;;;17.64;100.00;101497.59;5069260;28;20056;-67
2023/09/06 05:00:36;;;;;;;6.68;2.58;;;;;;;17.86;100.00;101487.63;5065534;28;20073;-68
2023/09/06 05:03:08;;;;;;;9.23;3.35;;;;;;;17.80;100.00;101488.78;5068951;28;20055;-68
2023/09/06 05:05:35;;;;;;;11.13;4.15;;;;;;;17.88;100.00;101501.63;5066641;28;20127;-68
2023/09/06 05:08:03;;;;;;;10.88;3.80;;;;;;;17.94;100.00;101488.06;5070161;28;20109;-67
2023/09/06 05:10:31;;;;;;;9.63;3.00;;;;;;;18.03;100.00;101491.03;5067799;28;20128;-68
2023/09/06 05:12:58;;;;;;;10.55;4.47;;;;;;;17.96;100.00;101500.25;5068003;28;20055;-68
2023/09/06 05:15:24;;;;;;;10.20;4.22;;;;;;;17.81;100.00;101483.41;5064888;28;20048;-68
2023/09/06 05:17:51;;;;;;;9.95;4.18;;;;;;;17.98;100.00;101500.19;5054748;28;20053;-68
2023/09/06 05:20:32;;;;;;;8.75;3.70;;;;;;;18.07;100.00;101494.34;5068382;28;20048;-67
2023/09/06 05:23:02;;;;;;;9.45;4.55;;;;;;;18.01;100.00;101490.25;5062093;28;20082;-67
2023/09/06 05:25:30;;;;;;;11.63;4.65;;;;;;;18.10;100.00;101491.53;5064725;28;20052;-68
2023/09/06 05:28:00;;;;;;;11.70;3.72;;;;;;;18.17;100.00;101492.88;5056456;28;20422;-68
2023/09/06 05:30:27;;;;;;;12.20;5.50;;;;;;;18.00;100.00;101477.94;5057082;28;20040;-68
2023/09/06 05:32:55;;;;;;;10.93;5.65;;;;;;;18.05;100.00;101495.38;5053855;28;20746;-68
2023/09/06 05:35:23;;;;;;;12.23;6.53;;;;;;;17.94;100.00;101483.59;5067791;28;20040;-68
2023/09/06 05:37:50;;;;;;;20.98;9.65;;;;;;;17.66;100.00;101471.03;5058094;28;20409;-68
2023/09/06 05:40:22;;;;;;;14.18;7.40;;;;;;;17.80;100.00;101481.69;5062998;28;20068;-68
2023/09/06 05:42:52;;;;;;;14.85;8.82;;;;;;;17.75;100.00;101475.78;5048677;28;20053;-67
2023/09/06 05:45:23;;;;;;;16.00;8.07;;;;;;;17.80;100.00;101468.44;5066683;28;20481;-68
2023/09/06 05:47:50;;;;;;;15.52;8.18;;;;;;;17.78;100.00;101474.78;5060119;28;20535;-68
2023/09/06 05:50:17;;;;;;;15.13;8.13;;;;;;;17.92;100.00;101481.97;5058397;28;20049;-68
2023/09/06 05:52:44;;;;;;;14.30;7.40;;;;;;;18.01;100.00;101481.47;5067927;28;20052;-67
2023/09/06 05:55:11;;;;;;;13.73;7.53;;;;;;;17.98;100.00;101493.06;5056371;28;20279;-67
2023/09/06 05:57:38;;;;;;;13.07;7.65;;;;;;;17.96;100.00;101492.31;5056930;28;20478;-67
2023/09/06 06:00:21;;;;;;;12.85;6.22;;;;;;;18.15;100.00;101493.91;5062700;28;20529;-68
2023/09/06 06:02:49;;;;;;;12.65;6.47;;;;;;;18.14;100.00;101490.41;5054684;28;20429;-67
2023/09/06 06:05:18;;;;;;;13.65;6.10;;;;;;;18.31;100.00;101493.88;5060623;28;20040;-67
2023/09/06 06:07:46;;;;;;;15.20;7.10;;;;;;;18.12;100.00;101492.28;5055767;28;20345;-68
2023/09/06 06:10:13;;;;;;;19.85;11.10;;;;;;;17.79;100.00;101492.38;5056443;28;20485;-68
2023/09/06 06:12:41;;;;;;;26.77;13.10;;;;;;;17.65;100.00;101490.47;5059207;28;20049;-68
2023/09/06 06:15:09;;;;;;;19.58;10.65;;;;;;;17.76;100.00;101497.81;5059898;28;20055;-68
2023/09/06 06:17:36;;;;;;;15.35;8.52;;;;;;;17.86;100.00;101501.72;5057110;28;20045;-68
2023/09/06 06:20:06;;;;;;;15.63;8.13;;;;;;;17.93;100.00;101504.88;5048516;28;20041;-68
2023/09/06 06:22:37;;;;;;;15.25;10.00;;;;;;;17.76;100.00;101503.13;5047993;28;20083;-68
2023/09/06 06:25:05;;;;;;;19.10;10.77;;;;;;;17.84;100.00;101496.47;5060807;28;20058;-68
2023/09/06 06:27:32;;;;;;;20.67;13.48;;;;;;;17.77;100.00;101499.56;5049981;28;20056;-68
2023/09/06 06:29:59;;;;;;;19.55;10.43;;;;;;;17.84;100.00;101493.81;5061038;28;20068;-68
2023/09/06 06:32:26;;;;;;;15.88;8.98;;;;;;;17.91;100.00;101494.38;5066537;28;20048;-68
2023/09/06 06:34:54;;;;;;;17.23;10.63;;;;;;;17.95;100.00;101495.03;5064437;28;20051;-68
2023/09/06 06:37:21;;;;;;;18.75;10.00;;;;;;;17.89;100.00;101501.53;5065805;28;20048;-68
2023/09/06 06:39:49;;;;;;;24.50;15.55;;;;;;;17.88;100.00;101494.53;5060981;28;20486;-68
2023/09/06 06:42:15;;;;;;;14.85;8.75;;;;;;;17.93;100.00;101497.78;5056673;28;20053;-67
2023/09/06 06:44:46;;;;;;;12.77;7.30;;;;;;;18.18;100.00;101513.16;5071759;28;20056;-68
2023/09/06 06:47:13;;;;;;;13.75;7.10;;;;;;;18.25;100.00;101502.19;5066594;28;20470;-68
2023/09/06 06:49:40;;;;;;;14.32;7.13;;;;;;;18.29;100.00;101511.66;5071737;28;20048;-68
2023/09/06 06:52:07;;;;;;;19.70;12.50;;;;;;;18.15;100.00;101501.84;5066391;28;20049;-68
2023/09/06 06:54:34;;;;;;;22.85;14.60;;;;;;;17.96;100.00;101502.06;5066421;28;20501;-68
2023/09/06 06:57:01;;;;;;;15.30;8.80;;;;;;;18.02;100.00;101507.88;5063437;28;20053;-68
2023/09/06 06:59:28;;;;;;;16.58;9.70;;;;;;;18.00;100.00;101507.09;5063118;28;20872;-68
2023/09/06 07:01:55;;;;;;;17.35;11.75;;;;;;;18.13;100.00;101509.91;5065331;28;20041;-68
2023/09/06 07:04:21;;;;;;;14.52;8.85;;;;;;;18.10;100.00;101501.28;5060511;28;20044;-68
2023/09/06 07:06:48;;;;;;;17.50;11.65;;;;;;;18.09;100.00;101515.47;5062602;28;20393;-68
2023/09/06 07:09:15;;;;;;;21.40;12.48;;;;;;;18.08;100.00;101509.31;5065256;28;20514;-68
2023/09/06 07:11:41;;;;;;;24.65;12.38;;;;;;;18.11;100.00;101511.78;5064007;28;20059;-67
2023/09/06 07:14:08;;;;;;;17.77;10.48;;;;;;;18.21;100.00;101520.91;5057938;28;20104;-68
2023/09/06 07:16:35;;;;;;;15.45;8.27;;;;;;;18.30;100.00;101506.28;5052233;28;20045;-68
2023/09/06 07:19:02;;;;;;;22.73;15.73;;;;;;;18.18;100.00;101515.81;5052678;28;20049;-68
2023/09/06 07:21:30;;;;;;;19.27;12.02;;;;;;;18.31;100.00;101520.38;5068378;28;20048;-68
2023/09/06 07:23:56;;;;;;;17.58;9.75;;;;;;;18.14;100.00;101518.72;5063450;28;20401;-68
2023/09/06 07:26:23;;;;;;;19.27;10.98;;;;;;;18.33;100.00;101519.38;5081050;28;20554;-68
2023/09/06 07:28:50;;;;;;;17.73;9.20;;;;;;;18.37;100.00;101520.88;5056872;28;20452;-68
2023/09/06 07:31:17;;;;;;;17.83;9.88;;;;;;;18.48;100.00;101507.00;5058902;28;20047;-69
2023/09/06 07:33:45;;;;;;;21.90;13.27;;;;;;;18.27;100.00;101508.25;5072805;28;20064;-69
2023/09/06 07:36:13;;;;;;;21.65;12.32;;;;;;;18.25;100.00;101515.44;5072350;28;20468;-69
2023/09/06 07:38:40;;;;;;;16.00;10.00;;;;;;;18.43;100.00;101529.44;5086722;28;20049;-69
2023/09/06 07:41:08;;;;;;;22.13;14.05;;;;;;;18.25;100.00;101520.75;5071139;28;20129;-69
2023/09/06 07:43:36;;;;;;;18.30;10.63;;;;;;;18.32;100.00;101524.75;5071116;28;20045;-69
2023/09/06 07:46:07;;;;;;;17.90;12.30;;;;;;;18.17;100.00;101530.00;5052855;28;20049;-69
2023/09/06 07:48:35;;;;;;;25.27;17.25;;;;;;;17.98;100.00;101531.97;5069014;28;20041;-69
2023/09/06 07:51:05;;;;;;;16.70;10.27;;;;;;;18.25;100.00;101523.41;5070091;28;20131;-69
2023/09/06 07:53:32;;;;;;;19.65;13.82;;;;;;;18.35;100.00;101525.41;5070274;28;20051;-68
2023/09/06 07:55:59;;;;;;;19.13;12.82;;;;;;;18.40;100.00;101520.72;5071327;28;20559;-69
2023/09/06 07:58:27;;;;;;;20.98;13.63;;;;;;;18.49;100.00;101524.63;5072200;28;20068;-68
2023/09/06 08:00:57;;;;;;;22.17;16.30;;;;;;;18.47;100.00;101523.00;5068802;28;20052;-68
2023/09/06 08:03:43;;;;;;;20.00;12.98;;;;;;;18.38;100.00;101524.41;5071656;28;20052;-68
2023/09/06 08:06:10;;;;;;;18.13;11.20;;;;;;;18.58;100.00;101525.88;5070301;28;20547;-68
2023/09/06 08:08:36;;;;;;;20.00;12.43;;;;;;;18.60;100.00;101534.59;5071654;28;20056;-68
2023/09/06 08:11:05;;;;;;;16.20;9.07;;;;;;;18.72;100.00;101533.03;5070996;28;20055;-68
2023/09/06 08:13:32;;;;;;;17.90;11.68;;;;;;;18.75;100.00;101535.47;5071504;28;20056;-68
2023/09/06 08:16:00;;;;;;;19.88;12.25;;;;;;;18.56;100.00;101531.28;5071461;28;20055;-68
2023/09/06 08:18:28;;;;;;;21.42;12.82;;;;;;;18.49;100.00;101521.13;5071120;28;20053;-68
2023/09/06 08:20:55;;;;;;;17.40;11.52;;;;;;;18.69;100.00;101517.28;5086166;28;20037;-68
2023/09/06 08:23:22;;;;;;;18.58;11.43;;;;;;;18.58;100.00;101525.88;5071900;28;20131;-68
2023/09/06 08:25:49;;;;;;;21.77;14.20;;;;;;;18.84;100.00;101531.47;5070843;28;20051;-68
2023/09/06 08:28:18;;;;;;;20.33;13.20;;;;;;;18.68;100.00;101520.88;5070816;28;20496;-67
2023/09/06 08:30:46;;;;;;;21.92;13.80;;;;;;;18.95;100.00;101534.34;5062798;28;20131;-68
2023/09/06 08:33:14;;;;;;;22.20;15.18;;;;;;;18.82;100.00;101533.34;5071428;28;20044;-68
2023/09/06 08:35:41;;;;;;;24.85;16.55;;;;;;;18.49;100.00;101527.28;5071185;28;20540;-69
2023/09/06 08:38:09;;;;;;;26.00;14.63;;;;;;;18.71;100.00;101531.31;5071533;28;20083;-68
2023/09/06 08:40:39;;;;;;;21.67;12.68;;;;;;;18.99;100.00;101538.50;5070464;28;20056;-68
2023/09/06 08:43:09;;;;;;;20.02;12.23;;;;;;;18.85;100.00;101523.41;5070284;28;20052;-68
2023/09/06 08:45:41;;;;;;;20.38;13.52;;;;;;;18.91;100.00;101538.09;5058326;28;20578;-68
2023/09/06 08:48:08;;;;;;;21.67;14.77;;;;;;;18.77;100.00;101538.91;5071288;28;20048;-68
2023/09/06 08:50:37;;;;;;;15.98;10.43;;;;;;;19.24;100.00;101534.38;5056420;28;20052;-69
2023/09/06 08:53:05;;;;;;;23.55;11.70;;;;;;;19.03;100.00;101542.69;5070470;28;20505;-69
2023/09/06 08:55:32;;;;;;;24.67;16.65;;;;;;;18.84;100.00;101529.69;5068413;28;20547;-68
2023/09/06 08:58:03;;;;;;;19.73;11.95;;;;;;;18.95;100.00;101521.06;5070770;28;20656;-68
2023/09/06 09:00:30;;;;;;;17.80;12.15;;;;;;;19.35;100.00;101526.56;5069703;28;20058;-68
2023/09/06 09:02:58;;;;;;;26.77;15.20;;;;;;;19.25;100.00;101515.69;5070237;28;20048;-68
2023/09/06 09:05:25;;;;;;;21.10;11.38;;;;;;;19.20;100.00;101519.59;5069216;28;20135;-68
2023/09/06 09:08:01;;;;;;;29.88;19.42;;;;;;;19.20;100.00;101528.38;5070137;28;20060;-68
2023/09/06 09:10:31;;;;;;;27.23;17.95;;;;;;;19.28;100.00;101514.63;5069232;28;20056;-68
2023/09/06 09:13:00;;;;;;;21.50;15.05;;;;;;;19.41;100.00;101515.59;5070145;28;20107;-69
2023/09/06 09:15:31;;;;;;;35.03;19.08;;;;;;;19.33;100.00;101510.72;5068781;28;20056;-68
2023/09/06 09:17:58;;;;;;;21.27;14.50;;;;;;;19.32;100.00;101506.38;5058200;28;20067;-68
2023/09/06 09:20:31;;;;;;;32.67;20.05;;;;;;;19.22;100.00;101510.56;5069269;28;20561;-68
2023/09/06 09:23:01;;;;;;;24.73;15.93;;;;;;;19.39;100.00;101492.72;5070550;28;20156;-68
2023/09/06 09:25:30;;;;;;;29.75;16.75;;;;;;;19.58;100.00;101500.38;5066411;28;20060;-68
2023/09/06 09:27:57;;;;;;;25.85;17.25;;;;;;;19.60;100.00;101509.97;5067667;28;20630;-68
2023/09/06 09:30:30;;;;;;;30.55;21.55;;;;;;;19.32;100.00;101506.38;5067862;28;20485;-68
2023/09/06 09:33:03;;;;;;;22.75;15.77;;;;;;;19.55;100.00;101501.44;5070296;28;20049;-68
2023/09/06 09:35:32;;;;;;;31.60;20.23;;;;;;;19.37;100.00;101489.31;5069869;28;20052;-69
2023/09/06 09:38:01;;;;;;;32.92;20.20;;;;;;;19.06;100.00;101486.75;5068525;28;20414;-69
2023/09/06 09:40:34;;;;;;;28.58;18.50;;;;;;;19.39;100.00;101498.91;5068402;28;20056;-68
2023/09/06 09:43:04;;;;;;;29.45;18.65;;;;;;;19.39;100.00;101501.56;5054927;28;20057;-68
2023/09/06 09:45:45;;;;;;;28.38;17.85;;;;;;;19.14;100.00;101495.13;5070413;28;20048;-68
2023/09/06 09:48:15;;;;;;;27.13;15.00;;;;;;;19.31;100.00;101487.91;5069448;28;20102;-68
2023/09/06 09:50:44;;;;;;;21.95;14.00;;;;;;;19.44;100.00;101486.19;5069288;28;20056;-68
2023/09/06 09:53:12;;;;;;;27.75;17.02;;;;;;;19.45;100.00;101487.88;5063622;28;20346;-69
2023/09/06 09:55:46;;;;;;;26.98;18.63;;;;;;;19.23;100.00;101490.16;5066129;28;20075;-68
2023/09/06 09:58:13;;;;;;;27.85;18.65;;;;;;;19.08;100.00;101481.38;5069423;28;20084;-69
2023/09/06 10:00:41;;;;;;;32.15;21.55;;;;;;;18.70;100.00;101476.56;5066460;28;20068;-68
2023/09/06 10:03:09;;;;;;;36.63;22.25;;;;;;;18.91;100.00;101490.34;5069720;28;20049;-68
2023/09/06 10:05:38;;;;;;;25.48;15.48;;;;;;;19.45;100.00;101481.72;5068342;28;20493;-69
2023/09/06 10:08:09;;;;;;;33.67;21.48;;;;;;;19.17;100.00;101494.06;5070464;28;20139;-68
2023/09/06 10:10:40;;;;;;;27.13;19.60;;;;;;;19.09;100.00;101483.09;5069291;28;20056;-68
2023/09/06 10:13:08;;;;;;;28.05;19.73;;;;;;;19.04;100.00;101487.81;5070123;28;20110;-69
2023/09/06 10:15:36;;;;;;;38.08;22.38;;;;;;;19.21;100.00;101489.41;5071180;28;20056;-68
2023/09/06 10:18:06;;;;;;;36.05;22.00;;;;;;;19.00;100.00;101503.06;5065202;28;20052;-68
2023/09/06 10:20:37;;;;;;;29.20;18.23;;;;;;;19.01;100.00;101486.19;5068410;28;20082;-68
2023/09/06 10:23:06;;;;;;;30.73;19.52;;;;;;;19.19;100.00;101464.78;5073568;28;20045;-68
2023/09/06 10:25:41;;;;;;;29.25;18.13;;;;;;;19.24;100.00;101476.81;5073229;28;20110;-69
2023/09/06 10:28:08;;;;;;;27.58;17.25;;;;;;;19.37;100.00;101471.59;5060702;28;20048;-68
2023/09/06 10:30:45;;;;;;;25.98;16.70;;;;;;;19.54;100.00;101473.16;5063457;28;20538;-68
2023/09/06 10:33:35;;;;;;;30.58;18.85;;;;;;;19.66;100.00;101479.50;5073234;28;20048;-69
2023/09/06 10:36:08;;;;;;;23.77;15.70;;;;;;;19.56;100.00;101462.44;5073568;28;20062;-68
2023/09/06 10:38:51;;;;;;;;;;;;;;;19.39;100.00;101474.13;5089022;28;20576;-69
2023/09/06 10:41:22;;;;;;;23.45;13.57;;;;;;;19.75;100.00;101475.44;5071811;28;19921;-69
2023/09/06 10:43:48;;;;;;;31.08;18.00;;;;;;;19.63;100.00;101477.88;5066711;28;20140;-67
2023/09/06 10:46:18;;;;;;;24.98;15.73;;;;;;;19.70;100.00;101470.38;5069361;28;20432;-68
2023/09/06 10:49:13;;;;;;;29.95;19.50;;;;;;;19.65;100.00;101472.47;5063117;28;20068;-68
2023/09/06 10:52:01;;;;;;;24.95;15.95;;;;;;;19.98;100.00;101474.78;5067205;28;20075;-68
2023/09/06 10:54:37;;;;;;;25.52;16.90;;;;;;;19.52;100.00;101469.75;5063982;28;20485;-67
2023/09/06 10:57:06;;;;;;;31.83;18.88;;;;;;;19.34;100.00;101463.81;5068347;28;20571;-66
2023/09/06 10:59:44;;;;;;;26.10;15.95;;;;;;;19.32;100.00;101463.91;5062548;28;20080;-66
2023/09/06 11:02:20;;;;;;;28.23;17.50;;;;;;;19.12;100.00;101481.09;5070170;28;20052;-67
2023/09/06 11:05:02;;;;;;;23.05;13.40;;;;;;;19.14;100.00;101462.38;5060323;28;20501;-67
2023/09/06 11:07:39;;;;;;;31.83;18.35;;;;;;;18.97;100.00;101463.44;5056214;28;20063;-68
2023/09/06 11:10:22;;;;;;;38.45;18.05;;;;;;;19.02;100.00;101487.06;5059587;28;20449;-67
2023/09/06 11:12:53;;;;;;;27.00;16.25;;;;;;;19.09;100.00;101475.13;5065070;28;20091;-67
2023/09/06 11:15:24;;;;;;;23.23;14.98;;;;;;;18.95;100.00;101478.63;5061276;28;20442;-67
2023/09/06 11:17:57;;;;;;;24.10;16.23;;;;;;;18.59;100.00;101480.72;5071747;28;20076;-67
2023/09/06 11:20:24;;;;;;;;;;;;;;;18.72;100.00;101486.13;5065807;28;20049;-67